sensor_id;sensor_type;location;lat;lon;timestamp;temperature;humidity
27848;DHT22;15212;48.830;8.730;2022-11-06T00:01:54;4.30;99.90
27848;DHT22;15212;48.830;8.730;2022-11-06T00:04:22;4.30;99.90
27848;DHT22;15212;48.830;8.730;2022-11-06T00:06:50;4.30;99.90
27848;DHT22;15212;48.830;8.730;2022-11-06T00:09:20;4.40;99.90
27848;DHT22;15212;48.830;8.730;2022-11-06T00:11:49;4.40;99.90
27848;DHT22;15212;48.830;8.730;2022-11-06T00:14:18;4.40;99.90
27848;DHT22;15212;48.830;8.730;2022-11-06T00:16:47;4.40;99.90
27848;DHT22;15212;48.830;8.730;2022-11-06T00:19:15;4.40;99.90
27848;DHT22;15212;48.830;8.730;2022-11-06T00:21:44;4.40;99.90
27848;DHT22;15212;48.830;8.730;2022-11-06T00:24:13;4.40;99.90
27848;DHT22;15212;48.830;8.730;2022-11-06T00:26:42;4.40;99.90
27848;DHT22;15212;48.830;8.730;2022-11-06T00:29:14;4.40;99.90
27848;DHT22;15212;48.830;8.730;2022-11-06T00:31:43;4.50;99.90
27848;DHT22;15212;48.830;8.730;2022-11-06T00:34:12;4.50;99.90
27848;DHT22;15212;48.830;8.730;2022-11-06T00:36:40;4.50;99.90
27848;DHT22;15212;48.830;8.730;2022-11-06T00:39:09;4.50;99.90
27848;DHT22;15212;48.830;8.730;2022-11-06T00:41:38;4.50;99.90
27848;DHT22;15212;48.830;8.730;2022-11-06T00:44:08;4.50;99.90
27848;DHT22;15212;48.830;8.730;2022-11-06T00:46:36;4.50;99.90
27848;DHT22;15212;48.830;8.730;2022-11-06T00:49:05;4.50;99.90
27848;DHT22;15212;48.830;8.730;2022-11-06T00:51:35;4.40;99.90
27848;DHT22;15212;48.830;8.730;2022-11-06T00:54:11;4.30;99.90
27848;DHT22;15212;48.830;8.730;2022-11-06T00:56:40;4.20;99.90
27848;DHT22;15212;48.830;8.730;2022-11-06T00:59:10;4.10;99.90
27848;DHT22;15212;48.830;8.730;2022-11-06T01:01:41;4.00;99.90
27848;DHT22;15212;48.830;8.730;2022-11-06T01:04:13;4.00;99.90
27848;DHT22;15212;48.830;8.730;2022-11-06T01:06:49;4.00;99.90
27848;DHT22;15212;48.830;8.730;2022-11-06T01:09:22;3.90;99.90
27848;DHT22;15212;48.830;8.730;2022-11-06T01:11:53;3.80;99.90
27848;DHT22;15212;48.830;8.730;2022-11-06T01:14:23;3.80;99.90
27848;DHT22;15212;48.830;8.730;2022-11-06T01:16:52;3.80;99.90
27848;DHT22;15212;48.830;8.730;2022-11-06T01:19:21;3.80;99.90
27848;DHT22;15212;48.830;8.730;2022-11-06T01:21:51;3.90;99.90
27848;DHT22;15212;48.830;8.730;2022-11-06T01:24:23;3.90;99.90
27848;DHT22;15212;48.830;8.730;2022-11-06T01:26:53;3.90;99.90
27848;DHT22;15212;48.830;8.730;2022-11-06T01:29:21;3.90;99.90
27848;DHT22;15212;48.830;8.730;2022-11-06T01:31:50;3.90;99.90
27848;DHT22;15212;48.830;8.730;2022-11-06T01:34:18;4.00;99.90
27848;DHT22;15212;48.830;8.730;2022-11-06T01:36:47;4.10;99.90
27848;DHT22;15212;48.830;8.730;2022-11-06T01:39:15;4.20;99.90
27848;DHT22;15212;48.830;8.730;2022-11-06T01:41:47;4.20;99.90
27848;DHT22;15212;48.830;8.730;2022-11-06T01:47:25;4.30;99.90
27848;DHT22;15212;48.830;8.730;2022-11-06T01:49:57;4.30;99.90
27848;DHT22;15212;48.830;8.730;2022-11-06T01:52:28;4.30;99.90
27848;DHT22;15212;48.830;8.730;2022-11-06T01:55:12;4.20;99.90
27848;DHT22;15212;48.830;8.730;2022-11-06T01:57:38;4.20;99.90
27848;DHT22;15212;48.830;8.730;2022-11-06T02:00:07;4.20;99.90
27848;DHT22;15212;48.830;8.730;2022-11-06T02:02:37;4.10;99.90
27848;DHT22;15212;48.830;8.730;2022-11-06T02:05:07;4.10;99.90
27848;DHT22;15212;48.830;8.730;2022-11-06T02:07:36;4.00;99.90
27848;DHT22;15212;48.830;8.730;2022-11-06T02:10:06;4.00;99.90
27848;DHT22;15212;48.830;8.730;2022-11-06T02:13:15;3.90;99.90
27848;DHT22;15212;48.830;8.730;2022-11-06T02:18:54;3.70;99.90
27848;DHT22;15212;48.830;8.730;2022-11-06T02:21:57;3.80;99.90
27848;DHT22;15212;48.830;8.730;2022-11-06T02:24:50;3.70;99.90
27848;DHT22;15212;48.830;8.730;2022-11-06T02:27:35;3.60;99.90
27848;DHT22;15212;48.830;8.730;2022-11-06T02:30:06;3.50;99.90
27848;DHT22;15212;48.830;8.730;2022-11-06T02:35:31;3.40;99.90
27848;DHT22;15212;48.830;8.730;2022-11-06T02:38:11;3.40;99.90
27848;DHT22;15212;48.830;8.730;2022-11-06T02:40:47;3.40;99.90
27848;DHT22;15212;48.830;8.730;2022-11-06T02:43:20;3.40;99.90
27848;DHT22;15212;48.830;8.730;2022-11-06T02:46:10;3.30;99.90
27848;DHT22;15212;48.830;8.730;2022-11-06T02:48:37;3.30;99.90
27848;DHT22;15212;48.830;8.730;2022-11-06T02:51:10;3.20;99.90
27848;DHT22;15212;48.830;8.730;2022-11-06T02:53:42;3.30;99.90
27848;DHT22;15212;48.830;8.730;2022-11-06T02:56:21;3.40;99.90
27848;DHT22;15212;48.830;8.730;2022-11-06T02:58:52;3.50;99.90
27848;DHT22;15212;48.830;8.730;2022-11-06T03:01:34;3.50;99.90
27848;DHT22;15212;48.830;8.730;2022-11-06T03:04:15;3.60;99.90
27848;DHT22;15212;48.830;8.730;2022-11-06T03:06:46;3.60;99.90
27848;DHT22;15212;48.830;8.730;2022-11-06T03:09:21;3.70;99.90
27848;DHT22;15212;48.830;8.730;2022-11-06T03:11:59;3.70;99.90
27848;DHT22;15212;48.830;8.730;2022-11-06T03:20:30;3.80;99.90
27848;DHT22;15212;48.830;8.730;2022-11-06T03:23:10;3.80;99.90
27848;DHT22;15212;48.830;8.730;2022-11-06T03:25:53;3.80;99.90
27848;DHT22;15212;48.830;8.730;2022-11-06T03:31:48;3.80;99.90
27848;DHT22;15212;48.830;8.730;2022-11-06T03:34:23;3.70;99.90
27848;DHT22;15212;48.830;8.730;2022-11-06T03:36:52;3.80;99.90
27848;DHT22;15212;48.830;8.730;2022-11-06T03:39:25;3.80;99.90
27848;DHT22;15212;48.830;8.730;2022-11-06T03:42:09;3.80;99.90
27848;DHT22;15212;48.830;8.730;2022-11-06T03:44:42;3.90;99.90
27848;DHT22;15212;48.830;8.730;2022-11-06T03:47:29;3.90;99.90
27848;DHT22;15212;48.830;8.730;2022-11-06T03:50:15;3.90;99.90
27848;DHT22;15212;48.830;8.730;2022-11-06T03:52:42;3.90;99.90
27848;DHT22;15212;48.830;8.730;2022-11-06T03:55:23;3.90;99.90
27848;DHT22;15212;48.830;8.730;2022-11-06T03:58:38;3.80;99.90
27848;DHT22;15212;48.830;8.730;2022-11-06T04:00:33;3.80;99.90
27848;DHT22;15212;48.830;8.730;2022-11-06T04:03:05;3.80;99.90
27848;DHT22;15212;48.830;8.730;2022-11-06T04:05:39;3.80;99.90
27848;DHT22;15212;48.830;8.730;2022-11-06T04:08:10;3.80;99.90
27848;DHT22;15212;48.830;8.730;2022-11-06T04:11:00;3.80;99.90
27848;DHT22;15212;48.830;8.730;2022-11-06T04:13:48;3.80;99.90
27848;DHT22;15212;48.830;8.730;2022-11-06T04:16:38;3.80;99.90
27848;DHT22;15212;48.830;8.730;2022-11-06T04:19:19;3.80;99.90
27848;DHT22;15212;48.830;8.730;2022-11-06T04:24:56;3.90;99.90
27848;DHT22;15212;48.830;8.730;2022-11-06T04:27:58;3.90;99.90
27848;DHT22;15212;48.830;8.730;2022-11-06T04:30:31;3.90;99.90
27848;DHT22;15212;48.830;8.730;2022-11-06T04:33:24;3.90;99.90
27848;DHT22;15212;48.830;8.730;2022-11-06T04:36:01;3.80;99.90
27848;DHT22;15212;48.830;8.730;2022-11-06T04:41:40;3.80;99.90
27848;DHT22;15212;48.830;8.730;2022-11-06T04:44:12;3.70;99.90
27848;DHT22;15212;48.830;8.730;2022-11-06T04:46:47;3.70;99.90
27848;DHT22;15212;48.830;8.730;2022-11-06T04:49:20;3.70;99.90
27848;DHT22;15212;48.830;8.730;2022-11-06T04:51:50;3.70;99.90
27848;DHT22;15212;48.830;8.730;2022-11-06T04:54:19;3.70;99.90
27848;DHT22;15212;48.830;8.730;2022-11-06T04:56:47;3.70;99.90
27848;DHT22;15212;48.830;8.730;2022-11-06T04:59:17;3.70;99.90
27848;DHT22;15212;48.830;8.730;2022-11-06T05:01:45;3.70;99.90
27848;DHT22;15212;48.830;8.730;2022-11-06T05:04:14;3.80;99.90
27848;DHT22;15212;48.830;8.730;2022-11-06T05:06:42;3.80;99.90
27848;DHT22;15212;48.830;8.730;2022-11-06T05:09:10;3.80;99.90
27848;DHT22;15212;48.830;8.730;2022-11-06T05:11:39;3.80;99.90
27848;DHT22;15212;48.830;8.730;2022-11-06T05:14:07;3.80;99.90
27848;DHT22;15212;48.830;8.730;2022-11-06T05:16:36;3.80;99.90
27848;DHT22;15212;48.830;8.730;2022-11-06T05:19:04;3.80;99.90
27848;DHT22;15212;48.830;8.730;2022-11-06T05:21:33;3.80;99.90
27848;DHT22;15212;48.830;8.730;2022-11-06T05:24:20;3.80;99.90
27848;DHT22;15212;48.830;8.730;2022-11-06T05:26:48;3.70;99.90
27848;DHT22;15212;48.830;8.730;2022-11-06T05:29:16;3.70;99.90
27848;DHT22;15212;48.830;8.730;2022-11-06T05:31:45;3.70;99.90
27848;DHT22;15212;48.830;8.730;2022-11-06T05:34:13;3.70;99.90
27848;DHT22;15212;48.830;8.730;2022-11-06T05:36:41;3.70;99.90
27848;DHT22;15212;48.830;8.730;2022-11-06T05:39:10;3.70;99.90
27848;DHT22;15212;48.830;8.730;2022-11-06T05:41:38;3.60;99.90
27848;DHT22;15212;48.830;8.730;2022-11-06T05:44:06;3.70;99.90
27848;DHT22;15212;48.830;8.730;2022-11-06T05:46:35;3.70;99.90
27848;DHT22;15212;48.830;8.730;2022-11-06T05:49:03;3.70;99.90
27848;DHT22;15212;48.830;8.730;2022-11-06T05:51:32;3.70;99.90
27848;DHT22;15212;48.830;8.730;2022-11-06T05:54:00;3.70;99.90
27848;DHT22;15212;48.830;8.730;2022-11-06T05:56:29;3.70;99.90
27848;DHT22;15212;48.830;8.730;2022-11-06T05:58:58;3.70;99.90
27848;DHT22;15212;48.830;8.730;2022-11-06T06:01:26;3.80;99.90
27848;DHT22;15212;48.830;8.730;2022-11-06T06:03:54;3.80;99.90
27848;DHT22;15212;48.830;8.730;2022-11-06T06:06:23;3.80;99.90
27848;DHT22;15212;48.830;8.730;2022-11-06T06:08:51;3.80;99.90
27848;DHT22;15212;48.830;8.730;2022-11-06T06:11:20;3.70;99.90
27848;DHT22;15212;48.830;8.730;2022-11-06T06:13:48;3.60;99.90
27848;DHT22;15212;48.830;8.730;2022-11-06T06:16:17;3.50;99.90
27848;DHT22;15212;48.830;8.730;2022-11-06T06:18:49;3.50;99.90
27848;DHT22;15212;48.830;8.730;2022-11-06T06:21:17;3.40;99.90
27848;DHT22;15212;48.830;8.730;2022-11-06T06:23:46;3.30;99.90
27848;DHT22;15212;48.830;8.730;2022-11-06T06:26:14;3.20;99.90
27848;DHT22;15212;48.830;8.730;2022-11-06T06:28:42;3.20;99.90
27848;DHT22;15212;48.830;8.730;2022-11-06T06:31:11;3.10;99.90
27848;DHT22;15212;48.830;8.730;2022-11-06T06:33:39;3.00;99.90
27848;DHT22;15212;48.830;8.730;2022-11-06T06:36:08;2.90;99.90
27848;DHT22;15212;48.830;8.730;2022-11-06T06:38:36;2.90;99.90
27848;DHT22;15212;48.830;8.730;2022-11-06T06:41:07;2.90;99.90
27848;DHT22;15212;48.830;8.730;2022-11-06T06:43:37;2.90;99.90
27848;DHT22;15212;48.830;8.730;2022-11-06T06:46:06;2.90;99.90
27848;DHT22;15212;48.830;8.730;2022-11-06T06:48:34;2.90;99.90
27848;DHT22;15212;48.830;8.730;2022-11-06T06:51:03;2.80;99.90
27848;DHT22;15212;48.830;8.730;2022-11-06T06:53:33;2.80;99.90
27848;DHT22;15212;48.830;8.730;2022-11-06T06:56:02;2.80;99.90
27848;DHT22;15212;48.830;8.730;2022-11-06T06:58:31;2.90;99.90
27848;DHT22;15212;48.830;8.730;2022-11-06T07:01:01;3.00;99.90
27848;DHT22;15212;48.830;8.730;2022-11-06T07:03:30;3.00;99.90
27848;DHT22;15212;48.830;8.730;2022-11-06T07:05:59;3.10;99.90
27848;DHT22;15212;48.830;8.730;2022-11-06T07:08:28;3.10;99.90
27848;DHT22;15212;48.830;8.730;2022-11-06T07:11:05;3.10;99.90
27848;DHT22;15212;48.830;8.730;2022-11-06T07:13:35;3.20;99.90
27848;DHT22;15212;48.830;8.730;2022-11-06T07:16:05;3.10;99.90
27848;DHT22;15212;48.830;8.730;2022-11-06T07:18:35;3.10;99.90
27848;DHT22;15212;48.830;8.730;2022-11-06T07:21:06;3.10;99.90
27848;DHT22;15212;48.830;8.730;2022-11-06T07:23:36;3.00;99.90
27848;DHT22;15212;48.830;8.730;2022-11-06T07:26:05;3.00;99.90
27848;DHT22;15212;48.830;8.730;2022-11-06T07:28:34;3.10;99.90
27848;DHT22;15212;48.830;8.730;2022-11-06T07:31:04;3.10;99.90
27848;DHT22;15212;48.830;8.730;2022-11-06T07:33:34;3.20;99.90
27848;DHT22;15212;48.830;8.730;2022-11-06T07:36:05;3.20;99.90
27848;DHT22;15212;48.830;8.730;2022-11-06T07:38:36;3.20;99.90
27848;DHT22;15212;48.830;8.730;2022-11-06T07:41:13;3.30;99.90
27848;DHT22;15212;48.830;8.730;2022-11-06T07:43:42;3.40;99.90
27848;DHT22;15212;48.830;8.730;2022-11-06T07:46:11;3.40;99.90
27848;DHT22;15212;48.830;8.730;2022-11-06T07:48:40;3.60;99.90
27848;DHT22;15212;48.830;8.730;2022-11-06T07:51:10;3.70;99.90
27848;DHT22;15212;48.830;8.730;2022-11-06T07:53:38;3.80;99.90
27848;DHT22;15212;48.830;8.730;2022-11-06T07:56:07;3.80;99.90
27848;DHT22;15212;48.830;8.730;2022-11-06T07:58:36;3.90;99.90
27848;DHT22;15212;48.830;8.730;2022-11-06T08:01:05;4.00;99.90
27848;DHT22;15212;48.830;8.730;2022-11-06T08:03:35;4.10;99.90
27848;DHT22;15212;48.830;8.730;2022-11-06T08:06:04;4.20;99.90
27848;DHT22;15212;48.830;8.730;2022-11-06T08:08:32;4.30;99.90
27848;DHT22;15212;48.830;8.730;2022-11-06T08:11:03;4.40;99.90
27848;DHT22;15212;48.830;8.730;2022-11-06T08:13:32;4.50;99.90
27848;DHT22;15212;48.830;8.730;2022-11-06T08:16:05;4.60;99.90
27848;DHT22;15212;48.830;8.730;2022-11-06T08:18:39;4.80;99.90
27848;DHT22;15212;48.830;8.730;2022-11-06T08:21:08;4.90;99.90
27848;DHT22;15212;48.830;8.730;2022-11-06T08:23:36;5.00;99.90
27848;DHT22;15212;48.830;8.730;2022-11-06T08:26:05;5.10;99.90
27848;DHT22;15212;48.830;8.730;2022-11-06T08:28:34;5.10;99.90
27848;DHT22;15212;48.830;8.730;2022-11-06T08:31:04;5.20;99.90
27848;DHT22;15212;48.830;8.730;2022-11-06T08:33:34;5.30;99.90
27848;DHT22;15212;48.830;8.730;2022-11-06T08:36:04;5.40;99.90
27848;DHT22;15212;48.830;8.730;2022-11-06T08:38:34;5.60;99.90
27848;DHT22;15212;48.830;8.730;2022-11-06T08:41:08;5.80;99.90
27848;DHT22;15212;48.830;8.730;2022-11-06T08:43:39;5.90;99.90
27848;DHT22;15212;48.830;8.730;2022-11-06T08:46:09;6.00;99.90
27848;DHT22;15212;48.830;8.730;2022-11-06T08:48:37;6.10;99.90
27848;DHT22;15212;48.830;8.730;2022-11-06T08:51:05;6.20;99.90
27848;DHT22;15212;48.830;8.730;2022-11-06T08:53:34;6.30;99.90
27848;DHT22;15212;48.830;8.730;2022-11-06T08:56:03;6.40;99.90
27848;DHT22;15212;48.830;8.730;2022-11-06T08:58:32;6.40;99.90
27848;DHT22;15212;48.830;8.730;2022-11-06T09:01:01;6.40;99.90
27848;DHT22;15212;48.830;8.730;2022-11-06T09:03:29;6.40;99.90
27848;DHT22;15212;48.830;8.730;2022-11-06T09:05:58;6.50;99.90
27848;DHT22;15212;48.830;8.730;2022-11-06T09:08:26;6.60;99.90
27848;DHT22;15212;48.830;8.730;2022-11-06T09:10:54;6.80;99.90
27848;DHT22;15212;48.830;8.730;2022-11-06T09:13:23;6.90;99.90
27848;DHT22;15212;48.830;8.730;2022-11-06T09:15:52;7.00;99.90
27848;DHT22;15212;48.830;8.730;2022-11-06T09:18:21;7.10;99.90
27848;DHT22;15212;48.830;8.730;2022-11-06T09:20:54;7.30;99.90
27848;DHT22;15212;48.830;8.730;2022-11-06T09:23:24;7.40;99.90
27848;DHT22;15212;48.830;8.730;2022-11-06T09:25:52;7.60;99.90
27848;DHT22;15212;48.830;8.730;2022-11-06T09:28:20;7.80;99.90
27848;DHT22;15212;48.830;8.730;2022-11-06T09:30:49;8.00;99.90
27848;DHT22;15212;48.830;8.730;2022-11-06T09:33:17;8.20;99.90
27848;DHT22;15212;48.830;8.730;2022-11-06T09:35:45;8.30;99.90
27848;DHT22;15212;48.830;8.730;2022-11-06T09:38:14;8.50;99.90
27848;DHT22;15212;48.830;8.730;2022-11-06T09:40:51;8.50;99.90
27848;DHT22;15212;48.830;8.730;2022-11-06T09:46:25;8.70;99.90
27848;DHT22;15212;48.830;8.730;2022-11-06T09:49:00;8.70;99.90
27848;DHT22;15212;48.830;8.730;2022-11-06T09:51:38;8.80;99.90
27848;DHT22;15212;48.830;8.730;2022-11-06T09:54:14;8.80;99.90
27848;DHT22;15212;48.830;8.730;2022-11-06T09:56:46;8.90;99.90
27848;DHT22;15212;48.830;8.730;2022-11-06T09:59:18;8.90;99.90
27848;DHT22;15212;48.830;8.730;2022-11-06T10:01:55;8.90;99.90
27848;DHT22;15212;48.830;8.730;2022-11-06T10:04:53;9.00;99.90
27848;DHT22;15212;48.830;8.730;2022-11-06T10:07:32;8.90;99.90
27848;DHT22;15212;48.830;8.730;2022-11-06T10:10:03;8.90;99.90
27848;DHT22;15212;48.830;8.730;2022-11-06T10:12:39;8.80;99.90
27848;DHT22;15212;48.830;8.730;2022-11-06T10:15:23;8.90;99.90
27848;DHT22;15212;48.830;8.730;2022-11-06T10:18:07;8.70;99.90
27848;DHT22;15212;48.830;8.730;2022-11-06T10:21:07;8.70;99.90
27848;DHT22;15212;48.830;8.730;2022-11-06T10:26:16;8.80;99.90
27848;DHT22;15212;48.830;8.730;2022-11-06T10:28:54;8.80;99.90
27848;DHT22;15212;48.830;8.730;2022-11-06T10:34:45;8.80;99.90
27848;DHT22;15212;48.830;8.730;2022-11-06T10:37:20;8.70;99.90
27848;DHT22;15212;48.830;8.730;2022-11-06T10:39:49;8.60;99.90
27848;DHT22;15212;48.830;8.730;2022-11-06T10:42:23;8.60;99.90
27848;DHT22;15212;48.830;8.730;2022-11-06T10:45:02;8.50;99.90
27848;DHT22;15212;48.830;8.730;2022-11-06T10:50:17;8.50;99.90
27848;DHT22;15212;48.830;8.730;2022-11-06T10:52:51;8.50;99.90
27848;DHT22;15212;48.830;8.730;2022-11-06T10:58:32;8.50;99.90
27848;DHT22;15212;48.830;8.730;2022-11-06T11:01:03;8.60;99.90
27848;DHT22;15212;48.830;8.730;2022-11-06T11:03:34;8.70;99.90
27848;DHT22;15212;48.830;8.730;2022-11-06T11:06:05;8.80;99.90
27848;DHT22;15212;48.830;8.730;2022-11-06T11:08:36;8.80;99.90
27848;DHT22;15212;48.830;8.730;2022-11-06T11:11:18;8.90;99.90
27848;DHT22;15212;48.830;8.730;2022-11-06T11:16:38;9.00;99.90
27848;DHT22;15212;48.830;8.730;2022-11-06T11:22:10;9.10;99.90
27848;DHT22;15212;48.830;8.730;2022-11-06T11:25:05;9.10;99.90
27848;DHT22;15212;48.830;8.730;2022-11-06T11:27:42;9.20;99.90
27848;DHT22;15212;48.830;8.730;2022-11-06T11:30:20;9.20;99.90
27848;DHT22;15212;48.830;8.730;2022-11-06T11:32:55;9.20;99.90
27848;DHT22;15212;48.830;8.730;2022-11-06T11:35:26;9.20;99.90
27848;DHT22;15212;48.830;8.730;2022-11-06T11:38:12;9.20;99.90
27848;DHT22;15212;48.830;8.730;2022-11-06T11:40:38;9.30;99.90
27848;DHT22;15212;48.830;8.730;2022-11-06T11:43:21;9.30;99.90
27848;DHT22;15212;48.830;8.730;2022-11-06T11:46:18;9.30;99.90
27848;DHT22;15212;48.830;8.730;2022-11-06T11:48:52;9.40;99.90
27848;DHT22;15212;48.830;8.730;2022-11-06T11:51:33;9.40;99.90
27848;DHT22;15212;48.830;8.730;2022-11-06T11:57:01;9.50;99.90
27848;DHT22;15212;48.830;8.730;2022-11-06T12:02:18;9.40;99.90
27848;DHT22;15212;48.830;8.730;2022-11-06T12:04:50;9.40;99.90
27848;DHT22;15212;48.830;8.730;2022-11-06T12:07:30;9.20;99.90
27848;DHT22;15212;48.830;8.730;2022-11-06T12:09:56;9.20;99.90
27848;DHT22;15212;48.830;8.730;2022-11-06T12:12:30;9.10;99.90
27848;DHT22;15212;48.830;8.730;2022-11-06T12:18:00;9.10;99.90
27848;DHT22;15212;48.830;8.730;2022-11-06T12:20:44;9.10;99.90
27848;DHT22;15212;48.830;8.730;2022-11-06T12:23:46;9.10;99.90
27848;DHT22;15212;48.830;8.730;2022-11-06T12:26:50;9.10;99.90
27848;DHT22;15212;48.830;8.730;2022-11-06T12:29:35;9.10;99.90
27848;DHT22;15212;48.830;8.730;2022-11-06T12:32:26;9.10;99.90
27848;DHT22;15212;48.830;8.730;2022-11-06T12:38:20;9.10;99.90
27848;DHT22;15212;48.830;8.730;2022-11-06T12:41:00;9.10;99.90
27848;DHT22;15212;48.830;8.730;2022-11-06T12:43:36;9.10;99.90
27848;DHT22;15212;48.830;8.730;2022-11-06T12:49:30;9.30;99.90
27848;DHT22;15212;48.830;8.730;2022-11-06T12:52:25;9.30;99.90
27848;DHT22;15212;48.830;8.730;2022-11-06T12:55:28;9.40;99.90
27848;DHT22;15212;48.830;8.730;2022-11-06T12:58:27;9.40;99.90
27848;DHT22;15212;48.830;8.730;2022-11-06T13:04:27;9.50;99.90
27848;DHT22;15212;48.830;8.730;2022-11-06T13:18:00;9.40;99.90
27848;DHT22;15212;48.830;8.730;2022-11-06T13:21:19;9.30;99.90
27848;DHT22;15212;48.830;8.730;2022-11-06T13:23:34;9.30;99.90
27848;DHT22;15212;48.830;8.730;2022-11-06T13:26:00;9.30;99.90
27848;DHT22;15212;48.830;8.730;2022-11-06T13:28:31;9.30;99.90
27848;DHT22;15212;48.830;8.730;2022-11-06T13:31:02;9.30;99.90
27848;DHT22;15212;48.830;8.730;2022-11-06T13:33:35;9.30;99.90
27848;DHT22;15212;48.830;8.730;2022-11-06T13:36:06;9.20;99.90
27848;DHT22;15212;48.830;8.730;2022-11-06T13:38:38;9.20;99.90
27848;DHT22;15212;48.830;8.730;2022-11-06T13:41:20;9.20;99.90
27848;DHT22;15212;48.830;8.730;2022-11-06T13:44:05;9.20;99.90
27848;DHT22;15212;48.830;8.730;2022-11-06T13:51:54;9.10;99.90
27848;DHT22;15212;48.830;8.730;2022-11-06T13:54:38;9.10;99.90
27848;DHT22;15212;48.830;8.730;2022-11-06T13:57:50;9.10;99.90
27848;DHT22;15212;48.830;8.730;2022-11-06T14:00:22;9.00;99.90
27848;DHT22;15212;48.830;8.730;2022-11-06T14:06:01;8.90;99.90
27848;DHT22;15212;48.830;8.730;2022-11-06T14:08:40;8.90;99.90
27848;DHT22;15212;48.830;8.730;2022-11-06T14:11:31;8.80;99.90
27848;DHT22;15212;48.830;8.730;2022-11-06T14:14:03;8.80;99.90
27848;DHT22;15212;48.830;8.730;2022-11-06T14:16:35;8.70;99.90
27848;DHT22;15212;48.830;8.730;2022-11-06T14:21:54;8.70;99.90
27848;DHT22;15212;48.830;8.730;2022-11-06T14:24:41;8.60;99.90
27848;DHT22;15212;48.830;8.730;2022-11-06T14:27:12;8.60;99.90
27848;DHT22;15212;48.830;8.730;2022-11-06T14:29:54;8.60;99.90
27848;DHT22;15212;48.830;8.730;2022-11-06T14:32:38;8.50;99.90
27848;DHT22;15212;48.830;8.730;2022-11-06T14:38:18;8.50;99.90
27848;DHT22;15212;48.830;8.730;2022-11-06T14:40:58;8.60;99.90
27848;DHT22;15212;48.830;8.730;2022-11-06T14:43:31;8.50;99.90
27848;DHT22;15212;48.830;8.730;2022-11-06T14:46:21;8.50;99.90
27848;DHT22;15212;48.830;8.730;2022-11-06T14:48:52;8.50;99.90
27848;DHT22;15212;48.830;8.730;2022-11-06T14:51:27;8.60;99.90
27848;DHT22;15212;48.830;8.730;2022-11-06T14:53:58;8.60;99.90
27848;DHT22;15212;48.830;8.730;2022-11-06T14:56:31;8.60;99.90
27848;DHT22;15212;48.830;8.730;2022-11-06T14:59:06;8.60;99.90
27848;DHT22;15212;48.830;8.730;2022-11-06T15:01:36;8.60;99.90
27848;DHT22;15212;48.830;8.730;2022-11-06T15:04:17;8.50;99.90
27848;DHT22;15212;48.830;8.730;2022-11-06T15:06:41;8.40;99.90
27848;DHT22;15212;48.830;8.730;2022-11-06T15:09:13;8.40;99.90
27848;DHT22;15212;48.830;8.730;2022-11-06T15:12:00;8.30;99.90
27848;DHT22;15212;48.830;8.730;2022-11-06T15:17:14;8.20;99.90
27848;DHT22;15212;48.830;8.730;2022-11-06T15:19:52;8.20;99.90
27848;DHT22;15212;48.830;8.730;2022-11-06T15:22:37;8.20;99.90
27848;DHT22;15212;48.830;8.730;2022-11-06T15:25:21;8.10;99.90
27848;DHT22;15212;48.830;8.730;2022-11-06T15:27:56;8.10;99.90
27848;DHT22;15212;48.830;8.730;2022-11-06T15:30:44;8.10;99.90
27848;DHT22;15212;48.830;8.730;2022-11-06T15:33:12;8.10;99.90
27848;DHT22;15212;48.830;8.730;2022-11-06T15:35:44;8.00;99.90
27848;DHT22;15212;48.830;8.730;2022-11-06T15:38:16;8.10;99.90
27848;DHT22;15212;48.830;8.730;2022-11-06T15:40:47;8.10;99.90
27848;DHT22;15212;48.830;8.730;2022-11-06T15:43:27;8.10;99.90
27848;DHT22;15212;48.830;8.730;2022-11-06T15:48:44;8.10;99.90
27848;DHT22;15212;48.830;8.730;2022-11-06T15:51:26;8.00;99.90
27848;DHT22;15212;48.830;8.730;2022-11-06T15:53:55;8.00;99.90
27848;DHT22;15212;48.830;8.730;2022-11-06T15:56:31;8.00;99.90
27848;DHT22;15212;48.830;8.730;2022-11-06T15:59:09;8.00;99.90
27848;DHT22;15212;48.830;8.730;2022-11-06T16:01:39;8.00;99.90
27848;DHT22;15212;48.830;8.730;2022-11-06T16:04:14;8.00;99.90
27848;DHT22;15212;48.830;8.730;2022-11-06T16:06:44;7.90;99.90
27848;DHT22;15212;48.830;8.730;2022-11-06T16:09:20;7.90;99.90
27848;DHT22;15212;48.830;8.730;2022-11-06T16:11:51;8.00;99.90
27848;DHT22;15212;48.830;8.730;2022-11-06T16:14:20;8.00;99.90
27848;DHT22;15212;48.830;8.730;2022-11-06T16:16:51;8.00;99.90
27848;DHT22;15212;48.830;8.730;2022-11-06T16:19:32;8.00;99.90
27848;DHT22;15212;48.830;8.730;2022-11-06T16:22:04;8.10;99.90
27848;DHT22;15212;48.830;8.730;2022-11-06T16:24:44;8.10;99.90
27848;DHT22;15212;48.830;8.730;2022-11-06T16:27:10;8.10;99.90
27848;DHT22;15212;48.830;8.730;2022-11-06T16:29:40;8.10;99.90
27848;DHT22;15212;48.830;8.730;2022-11-06T16:32:18;8.20;99.90
27848;DHT22;15212;48.830;8.730;2022-11-06T16:34:49;8.20;99.90
27848;DHT22;15212;48.830;8.730;2022-11-06T16:39:58;8.20;99.90
27848;DHT22;15212;48.830;8.730;2022-11-06T16:42:34;8.20;99.90
27848;DHT22;15212;48.830;8.730;2022-11-06T16:45:20;8.30;99.90
27848;DHT22;15212;48.830;8.730;2022-11-06T16:50:45;8.20;99.90
27848;DHT22;15212;48.830;8.730;2022-11-06T16:53:24;8.30;99.90
27848;DHT22;15212;48.830;8.730;2022-11-06T16:56:00;8.30;99.90
27848;DHT22;15212;48.830;8.730;2022-11-06T16:58:33;8.30;99.90
27848;DHT22;15212;48.830;8.730;2022-11-06T17:01:05;8.20;99.90
27848;DHT22;15212;48.830;8.730;2022-11-06T17:06:33;8.30;99.90
27848;DHT22;15212;48.830;8.730;2022-11-06T17:09:30;8.20;99.90
27848;DHT22;15212;48.830;8.730;2022-11-06T17:12:01;8.20;99.90
27848;DHT22;15212;48.830;8.730;2022-11-06T17:14:30;8.20;99.90
27848;DHT22;15212;48.830;8.730;2022-11-06T17:17:00;8.20;99.90
27848;DHT22;15212;48.830;8.730;2022-11-06T17:19:29;8.30;99.90
27848;DHT22;15212;48.830;8.730;2022-11-06T17:21:57;8.30;99.90
27848;DHT22;15212;48.830;8.730;2022-11-06T17:24:26;8.20;99.90
27848;DHT22;15212;48.830;8.730;2022-11-06T17:26:54;8.20;99.90
27848;DHT22;15212;48.830;8.730;2022-11-06T17:29:23;8.30;99.90
27848;DHT22;15212;48.830;8.730;2022-11-06T17:31:51;8.20;99.90
27848;DHT22;15212;48.830;8.730;2022-11-06T17:34:21;8.20;99.90
27848;DHT22;15212;48.830;8.730;2022-11-06T17:36:49;8.20;99.90
27848;DHT22;15212;48.830;8.730;2022-11-06T17:39:17;8.20;99.90
27848;DHT22;15212;48.830;8.730;2022-11-06T17:41:46;8.20;99.90
27848;DHT22;15212;48.830;8.730;2022-11-06T17:44:14;8.20;99.90
27848;DHT22;15212;48.830;8.730;2022-11-06T17:46:45;8.10;99.90
27848;DHT22;15212;48.830;8.730;2022-11-06T17:49:14;8.10;99.90
27848;DHT22;15212;48.830;8.730;2022-11-06T17:51:44;8.10;99.90
27848;DHT22;15212;48.830;8.730;2022-11-06T17:54:17;8.00;99.90
27848;DHT22;15212;48.830;8.730;2022-11-06T17:56:47;8.00;99.90
27848;DHT22;15212;48.830;8.730;2022-11-06T17:59:19;7.90;99.90
27848;DHT22;15212;48.830;8.730;2022-11-06T18:01:51;7.90;99.90
27848;DHT22;15212;48.830;8.730;2022-11-06T18:04:21;7.90;99.90
27848;DHT22;15212;48.830;8.730;2022-11-06T18:06:51;7.90;99.90
27848;DHT22;15212;48.830;8.730;2022-11-06T18:09:22;7.80;99.90